Time;durP1;ratioP1;P1;durP2;ratioP2;P2;SDS_P1;SDS_P2;PMS_P1;PMS_P2;Temp;Humidity;BMP_temperature;BMP_pressure;BME280_temperature;BME280_humidity;BME280_pressure;Samples;Min_cycle;Max_cycle;Signal;HPM_P1;HPM_P2
2024/01/09 00:01:10;;;;;;;15.77;8.10;;;2.50;46.60;;;;;;4985709;28;20642;-57
2024/01/09 00:03:35;;;;;;;11.00;7.73;;;2.20;46.50;;;;;;4986926;28;20566;-61
2024/01/09 00:06:01;;;;;;;10.70;7.27;;;2.30;46.90;;;;;;4985645;28;20268;-58
2024/01/09 00:08:26;;;;;;;13.20;8.77;;;2.30;46.90;;;;;;4985801;28;20773;-58
2024/01/09 00:10:52;;;;;;;12.33;7.83;;;2.50;47.20;;;;;;4991749;28;20198;-59
2024/01/09 00:13:17;;;;;;;9.83;7.27;;;2.60;47.20;;;;;;4988977;28;20183;-61
2024/01/09 00:15:44;;;;;;;11.40;7.20;;;2.60;46.70;;;;;;4983525;28;20334;-60
2024/01/09 00:18:09;;;;;;;12.80;7.97;;;2.50;46.30;;;;;;4986446;28;20182;-60
2024/01/09 00:20:35;;;;;;;12.53;7.07;;;2.40;46.10;;;;;;4991562;28;20441;-58
2024/01/09 00:23:00;;;;;;;10.77;7.30;;;2.30;46.10;;;;;;4988155;28;20190;-57
2024/01/09 00:25:26;;;;;;;12.60;7.40;;;2.20;46.10;;;;;;4982096;28;20233;-59
2024/01/09 00:27:51;;;;;;;10.70;6.40;;;2.30;46.20;;;;;;4991035;28;20187;-60
2024/01/09 00:30:19;;;;;;;11.20;7.27;;;2.20;46.00;;;;;;4991220;28;20248;-56
2024/01/09 00:32:47;;;;;;;11.97;7.60;;;2.20;46.00;;;;;;4989248;28;20574;-61
2024/01/09 00:35:14;;;;;;;14.33;7.90;;;2.00;46.40;;;;;;4982393;28;20433;-60
2024/01/09 00:37:40;;;;;;;13.17;8.37;;;2.00;46.20;;;;;;4988487;28;20501;-59
2024/01/09 00:40:06;;;;;;;11.77;7.60;;;2.00;46.10;;;;;;4988550;28;20461;-56
2024/01/09 00:42:32;;;;;;;13.30;8.03;;;2.00;46.00;;;;;;4989087;28;20802;-57
2024/01/09 00:45:00;;;;;;;9.70;7.40;;;2.10;45.80;;;;;;4987837;28;20439;-59
2024/01/09 00:47:27;;;;;;;10.90;6.83;;;1.90;45.50;;;;;;4976768;28;20261;-60
2024/01/09 00:49:52;;;;;;;10.90;7.57;;;1.70;45.80;;;;;;4986960;28;20438;-59
2024/01/09 00:52:18;;;;;;;13.30;8.00;;;1.80;46.10;;;;;;4985688;28;20438;-59
2024/01/09 00:54:45;;;;;;;12.30;7.40;;;1.70;46.20;;;;;;4983323;28;20186;-59
2024/01/09 00:57:10;;;;;;;12.33;7.73;;;1.80;46.20;;;;;;4978398;28;20233;-59
2024/01/09 00:59:36;;;;;;;14.03;8.60;;;1.70;46.00;;;;;;4983977;28;20989;-60
2024/01/09 01:02:02;;;;;;;13.47;7.67;;;1.60;45.90;;;;;;4985675;28;20186;-55
2024/01/09 01:04:27;;;;;;;12.70;6.90;;;1.60;46.10;;;;;;4982712;28;20203;-59
2024/01/09 01:06:53;;;;;;;15.77;7.47;;;1.60;46.30;;;;;;4980630;28;20206;-56
2024/01/09 01:09:18;;;;;;;11.77;7.77;;;1.60;46.20;;;;;;4990602;28;20193;-59
2024/01/09 01:11:44;;;;;;;9.77;7.43;;;1.50;46.10;;;;;;4987070;28;20938;-57
2024/01/09 01:14:09;;;;;;;12.70;7.37;;;1.40;46.10;;;;;;4983594;28;20832;-59
2024/01/09 01:16:35;;;;;;;11.97;7.77;;;1.60;46.50;;;;;;4984502;28;20229;-56
2024/01/09 01:19:00;;;;;;;12.57;8.13;;;1.60;46.00;;;;;;4987221;28;20226;-60
2024/01/09 01:21:26;;;;;;;12.83;8.10;;;1.40;45.60;;;;;;4977586;28;20194;-60
2024/01/09 01:23:52;;;;;;;12.67;8.57;;;1.50;45.90;;;;;;4990666;28;20309;-55
2024/01/09 01:26:17;;;;;;;11.07;7.77;;;1.50;46.10;;;;;;4979941;28;20206;-58
2024/01/09 01:28:43;;;;;;;14.70;7.70;;;1.50;46.10;;;;;;4986519;28;20662;-58
2024/01/09 01:31:09;;;;;;;12.70;7.87;;;1.50;46.00;;;;;;4983540;28;20187;-60
2024/01/09 01:33:34;;;;;;;13.50;6.87;;;1.50;46.10;;;;;;4983070;28;20194;-59
2024/01/09 01:36:00;;;;;;;12.80;7.90;;;1.50;46.00;;;;;;4985493;28;20479;-59
2024/01/09 01:38:26;;;;;;;13.47;8.43;;;1.60;46.00;;;;;;4983001;28;20195;-60
2024/01/09 01:40:51;;;;;;;11.03;7.43;;;1.70;46.00;;;;;;4978968;28;20242;-58
2024/01/09 01:43:17;;;;;;;13.47;7.73;;;1.80;46.20;;;;;;4987151;28;20210;-57
2024/01/09 01:45:42;;;;;;;11.50;7.30;;;1.90;46.30;;;;;;4985275;28;20222;-59
2024/01/09 01:48:09;;;;;;;12.43;7.73;;;1.80;46.00;;;;;;4983323;28;20195;-58
2024/01/09 01:50:36;;;;;;;13.67;8.87;;;1.90;45.90;;;;;;4981479;28;20194;-59
2024/01/09 01:53:02;;;;;;;11.93;8.50;;;1.80;46.10;;;;;;4987894;28;20972;-59
2024/01/09 01:55:29;;;;;;;12.50;8.03;;;2.00;46.20;;;;;;4982530;28;20484;-56
2024/01/09 01:57:58;;;;;;;13.10;8.77;;;2.00;46.10;;;;;;4986729;28;20474;-58
2024/01/09 02:00:25;;;;;;;13.53;7.93;;;2.10;46.20;;;;;;4982647;28;20491;-59
2024/01/09 02:02:53;;;;;;;16.37;8.40;;;2.20;46.10;;;;;;4980570;28;20512;-57
2024/01/09 02:05:20;;;;;;;13.20;7.60;;;2.10;45.70;;;;;;4987050;28;20588;-57
2024/01/09 02:07:50;;;;;;;12.23;8.03;;;2.20;45.60;;;;;;4987751;28;20446;-59
2024/01/09 02:10:22;;;;;;;11.47;8.70;;;2.20;45.40;;;;;;4980692;28;20521;-59
2024/01/09 02:12:48;;;;;;;12.07;8.23;;;2.10;45.30;;;;;;4989398;28;20522;-61
2024/01/09 02:15:14;;;;;;;19.03;9.23;;;2.10;45.50;;;;;;4988741;28;20445;-58
2024/01/09 02:17:39;;;;;;;15.60;8.30;;;2.20;45.60;;;;;;4988169;28;20221;-59
2024/01/09 02:20:06;;;;;;;12.23;7.77;;;2.10;45.70;;;;;;4989234;28;20216;-59
2024/01/09 02:22:31;;;;;;;11.27;7.93;;;2.20;45.60;;;;;;4993413;28;20215;-59
2024/01/09 02:24:57;;;;;;;10.67;7.20;;;2.20;45.60;;;;;;4987729;28;20480;-58
2024/01/09 02:27:37;;;;;;;12.13;8.40;;;2.20;45.30;;;;;;4990135;28;20206;-58
2024/01/09 02:30:04;;;;;;;13.57;9.40;;;2.20;45.10;;;;;;4987918;28;20194;-57
2024/01/09 02:32:30;;;;;;;12.67;8.10;;;2.20;45.00;;;;;;4986947;28;20454;-59
2024/01/09 02:34:56;;;;;;;13.03;8.30;;;2.20;45.00;;;;;;4990634;28;20437;-58
2024/01/09 02:37:21;;;;;;;13.03;8.20;;;2.30;45.10;;;;;;4979030;28;20548;-61
2024/01/09 02:39:47;;;;;;;13.63;8.23;;;2.20;44.90;;;;;;4986912;28;20197;-57
2024/01/09 02:42:13;;;;;;;11.30;7.13;;;2.10;44.90;;;;;;4981306;28;20182;-57
2024/01/09 02:44:38;;;;;;;12.03;7.87;;;2.00;45.00;;;;;;4991168;28;20776;-59
2024/01/09 02:47:04;;;;;;;13.73;7.83;;;1.90;45.40;;;;;;4986112;28;20755;-56
2024/01/09 02:49:29;;;;;;;12.40;8.17;;;1.90;45.40;;;;;;4990148;28;20752;-60
2024/01/09 02:51:56;;;;;;;15.50;9.20;;;1.90;45.40;;;;;;4982808;28;20195;-57
2024/01/09 02:54:22;;;;;;;11.60;8.50;;;1.90;45.20;;;;;;4986953;28;20194;-58
2024/01/09 02:56:48;;;;;;;12.67;7.50;;;2.00;45.20;;;;;;4984629;28;20553;-53
2024/01/09 02:59:14;;;;;;;13.17;8.53;;;2.10;45.20;;;;;;4979426;28;20192;-58
2024/01/09 03:01:39;;;;;;;10.73;7.23;;;2.10;45.10;;;;;;4984013;28;20445;-59
2024/01/09 03:04:05;;;;;;;11.07;7.97;;;2.10;44.90;;;;;;4986014;28;20195;-57
2024/01/09 03:06:31;;;;;;;12.33;8.37;;;2.10;44.80;;;;;;4983295;28;20223;-58
2024/01/09 03:08:56;;;;;;;13.70;8.13;;;2.10;44.70;;;;;;4984300;28;20195;-60
2024/01/09 03:11:22;;;;;;;12.27;8.10;;;2.00;44.70;;;;;;4985265;28;20178;-60
2024/01/09 03:13:47;;;;;;;12.20;8.37;;;2.00;44.90;;;;;;4986820;28;20196;-57
2024/01/09 03:16:13;;;;;;;12.93;9.10;;;2.00;44.80;;;;;;4984536;28;20241;-61
2024/01/09 03:18:40;;;;;;;13.17;7.67;;;1.90;44.90;;;;;;4987542;28;20206;-59
2024/01/09 03:21:06;;;;;;;15.30;8.23;;;1.90;44.90;;;;;;4986183;28;20543;-59
2024/01/09 03:23:34;;;;;;;9.70;6.93;;;1.90;44.90;;;;;;4990125;28;21128;-60
2024/01/09 03:26:00;;;;;;;11.17;7.40;;;1.90;44.90;;;;;;4983165;28;20709;-60
2024/01/09 03:28:26;;;;;;;14.40;8.97;;;2.00;44.90;;;;;;4992644;28;20472;-56
2024/01/09 03:30:52;;;;;;;11.23;7.37;;;2.00;44.80;;;;;;4985180;28;20191;-59
2024/01/09 03:33:18;;;;;;;12.40;8.17;;;1.90;44.70;;;;;;4982892;28;20956;-56
2024/01/09 03:35:43;;;;;;;12.70;8.13;;;2.00;44.80;;;;;;4980500;28;20904;-58
2024/01/09 03:38:09;;;;;;;13.23;7.27;;;2.00;44.80;;;;;;4980716;28;20206;-59
2024/01/09 03:40:36;;;;;;;13.30;8.37;;;2.00;44.70;;;;;;4982462;28;20632;-59
2024/01/09 03:43:07;;;;;;;14.97;8.00;;;2.10;44.70;;;;;;4991920;28;20867;-59
2024/01/09 03:45:33;;;;;;;10.10;6.33;;;2.00;44.50;;;;;;4982294;28;20451;-59
2024/01/09 03:47:58;;;;;;;13.53;7.10;;;2.00;44.50;;;;;;4984528;28;20504;-58
2024/01/09 03:50:24;;;;;;;10.70;7.00;;;2.00;44.60;;;;;;4983815;28;20183;-57
2024/01/09 03:52:50;;;;;;;14.90;8.07;;;1.90;44.30;;;;;;4981248;28;20960;-57
2024/01/09 03:55:16;;;;;;;13.20;7.93;;;1.90;44.30;;;;;;4974840;28;20183;-60
2024/01/09 03:57:45;;;;;;;12.03;7.80;;;1.90;44.50;;;;;;4984931;28;20230;-61
2024/01/09 04:00:11;;;;;;;14.23;8.30;;;2.00;44.40;;;;;;4989186;28;20244;-60
2024/01/09 04:02:37;;;;;;;14.70;8.20;;;2.00;44.30;;;;;;4987431;28;20442;-60
2024/01/09 04:05:03;;;;;;;10.53;7.60;;;2.00;44.20;;;;;;4986065;28;20444;-59
2024/01/09 04:07:28;;;;;;;15.40;7.50;;;1.70;44.30;;;;;;4988432;28;20454;-57
2024/01/09 04:09:54;;;;;;;11.67;8.10;;;1.70;44.30;;;;;;4990324;28;20208;-56
2024/01/09 04:12:19;;;;;;;14.87;8.73;;;1.70;44.10;;;;;;4987505;28;20202;-60
2024/01/09 04:14:45;;;;;;;12.40;7.83;;;1.70;44.10;;;;;;4987412;28;20190;-60
2024/01/09 04:17:11;;;;;;;12.47;8.40;;;1.80;44.10;;;;;;4982976;28;20736;-58
2024/01/09 04:19:38;;;;;;;13.33;7.40;;;1.80;44.10;;;;;;4986249;28;20183;-59
2024/01/09 04:22:04;;;;;;;14.07;8.43;;;1.80;44.00;;;;;;4986945;28;20281;-58
2024/01/09 04:24:29;;;;;;;10.47;7.10;;;1.90;44.20;;;;;;4985657;28;20871;-57
2024/01/09 04:26:55;;;;;;;13.30;8.00;;;1.90;44.20;;;;;;4985629;28;20213;-59
2024/01/09 04:29:21;;;;;;;12.60;8.40;;;1.90;44.30;;;;;;4986343;28;20218;-59
2024/01/09 04:31:46;;;;;;;11.20;7.60;;;1.80;44.20;;;;;;4985914;28;20194;-57
2024/01/09 04:34:12;;;;;;;10.47;6.60;;;1.70;44.30;;;;;;4980462;28;20207;-59
2024/01/09 04:36:37;;;;;;;13.30;6.93;;;1.70;44.60;;;;;;4982571;28;20218;-56
2024/01/09 04:39:03;;;;;;;10.57;7.07;;;1.70;44.40;;;;;;4984137;28;20185;-59
2024/01/09 04:41:28;;;;;;;9.80;6.63;;;1.70;44.10;;;;;;4982366;28;20191;-58
2024/01/09 04:43:54;;;;;;;13.93;7.20;;;1.70;43.90;;;;;;4981400;28;20199;-59
2024/01/09 04:46:19;;;;;;;12.93;8.33;;;1.80;44.00;;;;;;4979571;28;20203;-59
2024/01/09 04:48:45;;;;;;;12.30;6.87;;;1.70;44.10;;;;;;4986522;28;20184;-60
2024/01/09 04:51:11;;;;;;;14.00;7.00;;;1.70;44.30;;;;;;4984636;28;20201;-58
2024/01/09 04:53:36;;;;;;;10.47;7.30;;;1.70;44.30;;;;;;4986296;28;20197;-59
2024/01/09 04:56:02;;;;;;;12.60;6.60;;;1.70;44.30;;;;;;4988727;28;20220;-58
2024/01/09 04:58:28;;;;;;;10.17;7.50;;;1.80;44.20;;;;;;4983017;28;20561;-60
2024/01/09 05:00:55;;;;;;;12.27;7.03;;;1.70;44.10;;;;;;4981379;28;20769;-57
2024/01/09 05:03:21;;;;;;;17.30;8.90;;;1.70;44.10;;;;;;4982512;28;20453;-57
2024/01/09 05:05:46;;;;;;;12.70;7.00;;;1.80;44.20;;;;;;4986654;28;20470;-59
2024/01/09 05:08:12;;;;;;;14.63;7.67;;;1.70;43.90;;;;;;4984424;28;20190;-57
2024/01/09 05:10:37;;;;;;;12.40;7.70;;;1.60;44.00;;;;;;4983064;28;20197;-60
2024/01/09 05:13:03;;;;;;;9.87;6.63;;;1.70;44.20;;;;;;4983100;28;20589;-58
2024/01/09 05:15:28;;;;;;;11.53;7.40;;;1.70;44.20;;;;;;4981323;28;20203;-60
2024/01/09 05:17:54;;;;;;;12.60;7.20;;;1.70;44.20;;;;;;4990199;28;20766;-55
2024/01/09 05:20:20;;;;;;;13.03;7.87;;;1.70;44.30;;;;;;4985788;28;20190;-56
2024/01/09 05:22:45;;;;;;;12.60;7.30;;;1.70;44.10;;;;;;4985213;28;20278;-57
2024/01/09 05:25:11;;;;;;;13.27;7.20;;;1.40;44.00;;;;;;4986430;28;20895;-59
2024/01/09 05:27:36;;;;;;;9.83;6.33;;;1.40;44.10;;;;;;4981058;28;20191;-59
2024/01/09 05:30:03;;;;;;;10.53;6.30;;;1.40;44.30;;;;;;4986884;28;20186;-59
2024/01/09 05:32:28;;;;;;;11.03;7.57;;;1.30;44.40;;;;;;4986158;28;20179;-60
2024/01/09 05:34:54;;;;;;;13.33;7.20;;;1.30;44.50;;;;;;4985096;28;20953;-58
2024/01/09 05:37:20;;;;;;;13.83;7.43;;;1.40;44.60;;;;;;4982634;28;20321;-61
2024/01/09 05:39:46;;;;;;;8.93;6.07;;;1.30;44.40;;;;;;4988907;28;20191;-58
2024/01/09 05:42:12;;;;;;;10.93;7.17;;;1.40;44.60;;;;;;4977212;28;20198;-60
2024/01/09 05:44:37;;;;;;;10.47;6.43;;;1.40;44.40;;;;;;4986469;28;20442;-59
2024/01/09 05:47:03;;;;;;;10.23;6.87;;;1.40;44.50;;;;;;4986973;28;20582;-58
2024/01/09 05:49:29;;;;;;;12.13;7.43;;;1.50;44.60;;;;;;4984696;28;20231;-59
2024/01/09 05:51:54;;;;;;;13.30;7.30;;;1.60;44.70;;;;;;4982911;28;21091;-61
2024/01/09 05:54:20;;;;;;;14.47;7.93;;;1.70;44.60;;;;;;4987380;28;20199;-58
2024/01/09 05:56:46;;;;;;;13.57;7.13;;;1.70;44.30;;;;;;4988111;28;20800;-60
2024/01/09 05:59:12;;;;;;;11.30;7.37;;;1.70;44.10;;;;;;4985937;28;20213;-59
2024/01/09 06:01:37;;;;;;;12.57;7.10;;;1.70;43.80;;;;;;4988949;28;20190;-57
2024/01/09 06:04:03;;;;;;;11.10;7.60;;;1.60;43.50;;;;;;4986641;28;20205;-56
2024/01/09 06:06:29;;;;;;;10.07;7.50;;;1.70;43.50;;;;;;4988098;28;20652;-59
2024/01/09 06:08:55;;;;;;;15.23;8.10;;;1.60;43.20;;;;;;4987287;28;20654;-56
2024/01/09 06:11:21;;;;;;;12.10;7.93;;;1.60;43.20;;;;;;4974873;28;20517;-58
2024/01/09 06:13:46;;;;;;;14.93;7.90;;;1.60;43.00;;;;;;4982492;28;20191;-60
2024/01/09 06:16:12;;;;;;;11.30;7.17;;;1.60;43.20;;;;;;4985594;28;20214;-59
2024/01/09 06:18:37;;;;;;;19.57;9.37;;;1.60;43.40;;;;;;4983126;28;20182;-58
2024/01/09 06:21:03;;;;;;;17.80;10.90;;;1.60;43.20;;;;;;4984794;28;20190;-59
2024/01/09 06:23:29;;;;;;;14.17;8.40;;;1.60;43.20;;;;;;4981897;28;20186;-58
2024/01/09 06:25:55;;;;;;;12.20;7.30;;;1.50;42.90;;;;;;4979836;28;20601;-57
2024/01/09 06:28:20;;;;;;;16.50;9.13;;;1.60;43.90;;;;;;4988646;28;20544;-60
2024/01/09 06:30:46;;;;;;;12.70;7.97;;;1.90;45.70;;;;;;4980328;28;20683;-58
2024/01/09 06:33:11;;;;;;;15.23;8.90;;;1.90;43.50;;;;;;4984470;28;20218;-60
2024/01/09 06:35:37;;;;;;;14.10;8.33;;;2.00;43.10;;;;;;4981641;28;20221;-60
2024/01/09 06:38:03;;;;;;;11.50;7.57;;;2.20;45.20;;;;;;4977504;28;20241;-60
2024/01/09 06:40:29;;;;;;;15.23;8.17;;;2.30;43.80;;;;;;4981616;28;20190;-59
2024/01/09 06:42:54;;;;;;;13.83;7.63;;;2.40;42.30;;;;;;4982973;28;20179;-58
2024/01/09 06:45:20;;;;;;;12.50;7.63;;;2.30;41.40;;;;;;4983084;28;21440;-56
2024/01/09 06:47:45;;;;;;;13.10;8.30;;;2.20;41.20;;;;;;4983900;28;20198;-59
2024/01/09 06:50:11;;;;;;;18.43;9.87;;;2.10;41.40;;;;;;4980016;28;20191;-59
2024/01/09 06:52:38;;;;;;;18.03;9.50;;;2.00;41.60;;;;;;4988260;28;20226;-59
2024/01/09 06:55:04;;;;;;;19.10;9.50;;;2.00;41.80;;;;;;4985738;28;20201;-58
2024/01/09 06:57:29;;;;;;;14.63;8.97;;;2.00;41.70;;;;;;4988172;28;20535;-58
2024/01/09 06:59:55;;;;;;;13.63;8.47;;;2.00;41.90;;;;;;4983598;28;20461;-59
2024/01/09 07:02:21;;;;;;;12.83;7.90;;;1.90;41.90;;;;;;4991664;28;20186;-57
2024/01/09 07:04:47;;;;;;;13.10;7.77;;;1.90;42.00;;;;;;4987648;28;20256;-57
2024/01/09 07:07:12;;;;;;;13.00;7.53;;;1.90;42.10;;;;;;4988916;28;20473;-59
2024/01/09 07:09:38;;;;;;;13.20;7.90;;;1.90;42.30;;;;;;4989166;28;20196;-57
2024/01/09 07:12:05;;;;;;;19.73;10.17;;;1.90;42.60;;;;;;4993645;28;20186;-59
2024/01/09 07:14:31;;;;;;;15.70;7.87;;;1.90;42.30;;;;;;4985906;28;20469;-59
2024/01/09 07:16:57;;;;;;;10.80;7.30;;;1.80;42.20;;;;;;4992676;28;20924;-60
2024/01/09 07:19:23;;;;;;;12.67;7.23;;;1.80;42.30;;;;;;4986749;28;20194;-59
2024/01/09 07:21:49;;;;;;;13.40;7.63;;;1.80;42.50;;;;;;4987661;28;20273;-61
2024/01/09 07:24:15;;;;;;;11.80;7.20;;;1.80;42.70;;;;;;4991211;28;20564;-57
2024/01/09 07:26:42;;;;;;;15.30;8.30;;;1.80;42.90;;;;;;4986350;28;20203;-57
2024/01/09 07:29:07;;;;;;;16.63;9.00;;;1.70;43.10;;;;;;4980002;28;20597;-60
2024/01/09 07:31:33;;;;;;;12.47;7.57;;;1.70;43.30;;;;;;4990984;28;20979;-58
2024/01/09 07:33:58;;;;;;;13.30;7.70;;;1.90;43.60;;;;;;4988785;28;20674;-58
2024/01/09 07:36:24;;;;;;;11.60;7.40;;;2.20;43.50;;;;;;4987731;28;20744;-57
2024/01/09 07:38:49;;;;;;;13.17;7.37;;;2.70;42.70;;;;;;4991922;28;21760;-61
2024/01/09 07:41:17;;;;;;;15.83;8.27;;;3.20;41.70;;;;;;4989361;28;20198;-60
2024/01/09 07:43:43;;;;;;;11.90;7.57;;;3.70;40.40;;;;;;4988111;28;20187;-58
2024/01/09 07:46:10;;;;;;;13.50;8.47;;;4.20;39.20;;;;;;4986159;28;21055;-59
2024/01/09 07:48:35;;;;;;;10.73;7.47;;;4.80;38.30;;;;;;4988441;28;20531;-60
2024/01/09 07:51:01;;;;;;;16.33;8.80;;;5.50;37.30;;;;;;4993088;28;20461;-57
2024/01/09 07:53:27;;;;;;;13.70;8.10;;;6.10;36.30;;;;;;4988573;28;20283;-59
2024/01/09 07:55:53;;;;;;;12.37;8.40;;;6.70;35.10;;;;;;4988458;28;20206;-57
2024/01/09 07:58:18;;;;;;;14.80;8.20;;;7.10;33.50;;;;;;4980262;28;20861;-58
2024/01/09 08:00:45;;;;;;;14.23;9.70;;;7.50;32.80;;;;;;4986502;28;20195;-59
2024/01/09 08:03:10;;;;;;;15.40;9.10;;;7.90;32.10;;;;;;4985671;28;20233;-59
2024/01/09 08:05:38;;;;;;;12.90;9.03;;;8.30;31.60;;;;;;4979030;28;20861;-57
2024/01/09 08:08:04;;;;;;;15.10;9.10;;;8.40;30.80;;;;;;4988968;28;20194;-58
2024/01/09 08:10:30;;;;;;;11.80;9.00;;;8.30;30.80;;;;;;4981313;28;20884;-59
2024/01/09 08:12:56;;;;;;;16.43;9.20;;;8.00;31.00;;;;;;4986658;28;20454;-59
2024/01/09 08:15:22;;;;;;;13.10;8.93;;;7.50;31.60;;;;;;4984232;28;20210;-59
2024/01/09 08:17:47;;;;;;;13.17;9.13;;;7.10;32.50;;;;;;4983689;28;20608;-61
2024/01/09 08:20:13;;;;;;;15.00;8.90;;;6.50;33.00;;;;;;4977283;28;20201;-58
2024/01/09 08:22:38;;;;;;;12.87;8.13;;;6.00;34.00;;;;;;4978731;28;20564;-60
2024/01/09 08:25:05;;;;;;;15.63;9.60;;;5.40;34.80;;;;;;4976594;28;20195;-60
2024/01/09 08:27:31;;;;;;;14.60;8.93;;;5.00;36.00;;;;;;4983938;28;20662;-60
2024/01/09 08:29:56;;;;;;;15.40;8.77;;;4.60;36.70;;;;;;4987832;28;20431;-60
2024/01/09 08:32:22;;;;;;;12.50;8.43;;;4.30;37.50;;;;;;4979296;28;20669;-61
2024/01/09 08:34:48;;;;;;;16.03;9.13;;;4.20;38.10;;;;;;4986700;28;20206;-59
2024/01/09 08:37:14;;;;;;;13.83;8.20;;;4.10;38.70;;;;;;4988152;28;20362;-60
2024/01/09 08:39:40;;;;;;;14.30;8.30;;;4.00;38.80;;;;;;4986587;28;20438;-57
2024/01/09 08:42:05;;;;;;;15.10;9.27;;;3.90;38.80;;;;;;4990585;28;20209;-60
2024/01/09 08:44:32;;;;;;;16.90;9.83;;;3.80;38.80;;;;;;4986369;28;20603;-59
2024/01/09 08:46:57;;;;;;;15.70;9.60;;;3.70;38.80;;;;;;4979332;28;20304;-58
2024/01/09 08:49:23;;;;;;;17.67;9.97;;;3.40;39.50;;;;;;4980679;28;20563;-60
2024/01/09 08:51:48;;;;;;;19.13;9.23;;;3.30;39.80;;;;;;4984478;28;20183;-60
2024/01/09 08:54:14;;;;;;;17.83;9.87;;;2.90;39.60;;;;;;4984743;28;20179;-58
2024/01/09 08:56:40;;;;;;;13.03;9.37;;;2.50;40.90;;;;;;4980745;28;20221;-59
2024/01/09 08:59:07;;;;;;;20.50;9.13;;;2.20;41.90;;;;;;4988662;28;20666;-61
2024/01/09 09:01:35;;;;;;;12.47;8.90;;;2.40;42.30;;;;;;4987935;28;20179;-62
2024/01/09 09:04:02;;;;;;;17.23;10.13;;;2.00;42.00;;;;;;4992792;28;21295;-61
2024/01/09 09:06:28;;;;;;;12.70;8.80;;;1.90;42.30;;;;;;4986187;28;20546;-58
2024/01/09 09:08:53;;;;;;;14.80;9.90;;;2.00;43.10;;;;;;4986157;28;20576;-59
2024/01/09 09:11:19;;;;;;;13.83;8.97;;;2.20;43.00;;;;;;4983594;28;20187;-62
2024/01/09 09:13:44;;;;;;;16.87;9.20;;;2.20;42.80;;;;;;4992097;28;20429;-61
2024/01/09 09:16:10;;;;;;;15.67;9.40;;;2.10;42.30;;;;;;4987225;28;20284;-58
2024/01/09 09:18:36;;;;;;;17.43;10.80;;;2.10;43.30;;;;;;4985678;28;22100;-60
2024/01/09 09:21:04;;;;;;;23.90;10.57;;;2.30;43.10;;;;;;4988022;28;20557;-61
2024/01/09 09:23:33;;;;;;;14.77;9.13;;;2.40;43.10;;;;;;4981111;28;20713;-61
2024/01/09 09:25:59;;;;;;;13.73;9.27;;;2.10;43.20;;;;;;4980256;28;20547;-62
2024/01/09 09:28:25;;;;;;;18.03;10.30;;;2.30;43.50;;;;;;4980854;28;20474;-60
2024/01/09 09:30:50;;;;;;;14.63;9.73;;;2.10;42.80;;;;;;4978967;28;20281;-61
2024/01/09 09:33:16;;;;;;;14.57;9.33;;;1.90;43.30;;;;;;4983583;28;20195;-60
2024/01/09 09:35:42;;;;;;;17.87;9.30;;;1.90;44.30;;;;;;4982522;28;20219;-59
2024/01/09 09:38:07;;;;;;;15.53;7.60;;;1.70;45.40;;;;;;4985454;28;20304;-59
2024/01/09 09:40:33;;;;;;;13.83;8.93;;;2.00;45.20;;;;;;4986715;28;20190;-61
2024/01/09 09:43:02;;;;;;;18.20;9.73;;;2.20;44.70;;;;;;4981372;28;20178;-59
2024/01/09 09:45:30;;;;;;;14.63;9.57;;;2.70;44.30;;;;;;4968828;28;20215;-63
2024/01/09 09:47:56;;;;;;;16.97;10.10;;;3.00;43.40;;;;;;4973622;28;20445;-61
2024/01/09 09:50:22;;;;;;;12.90;8.53;;;3.20;44.00;;;;;;4978291;28;20821;-58
2024/01/09 09:52:49;;;;;;;14.70;9.57;;;3.20;43.20;;;;;;4977276;28;20502;-59
2024/01/09 09:55:16;;;;;;;14.37;9.97;;;2.60;42.60;;;;;;4984603;28;20446;-60
2024/01/09 09:57:42;;;;;;;12.90;9.07;;;3.10;43.80;;;;;;4984245;28;20988;-61
2024/01/09 10:00:08;;;;;;;13.90;8.60;;;3.50;43.00;;;;;;4977557;28;20481;-61
2024/01/09 10:02:37;;;;;;;14.57;9.47;;;3.90;43.10;;;;;;4972934;28;20650;-61
2024/01/09 10:05:14;;;;;;;17.13;9.37;;;3.90;42.10;;;;;;4977599;28;20537;-60
2024/01/09 10:07:42;;;;;;;15.90;10.10;;;4.10;41.70;;;;;;4987789;28;20429;-61
2024/01/09 10:10:08;;;;;;;14.90;8.93;;;4.30;40.80;;;;;;4985566;28;20459;-60
2024/01/09 10:12:34;;;;;;;16.67;9.47;;;4.40;40.50;;;;;;4985295;28;20457;-60
2024/01/09 10:15:08;;;;;;;13.77;9.00;;;4.80;40.00;;;;;;4978668;28;20957;-61
2024/01/09 10:17:34;;;;;;;16.37;9.83;;;4.80;39.20;;;;;;4979501;28;20254;-61
2024/01/09 10:20:02;;;;;;;11.80;7.97;;;4.80;39.60;;;;;;4978947;28;20981;-62
2024/01/09 10:22:31;;;;;;;13.00;9.03;;;4.80;39.50;;;;;;4982258;28;20966;-60
2024/01/09 10:24:57;;;;;;;14.03;8.57;;;4.80;39.00;;;;;;4978492;28;20471;-61
2024/01/09 10:27:22;;;;;;;12.40;8.83;;;4.60;39.00;;;;;;4983264;28;20550;-60
2024/01/09 10:29:48;;;;;;;17.87;9.40;;;4.30;39.80;;;;;;4977559;28;20462;-59
2024/01/09 10:32:14;;;;;;;15.00;9.27;;;4.40;39.40;;;;;;4989858;28;20183;-61
2024/01/09 10:34:40;;;;;;;12.60;8.70;;;4.40;40.00;;;;;;4987885;28;20278;-62
2024/01/09 10:37:07;;;;;;;12.13;8.53;;;4.60;40.80;;;;;;4991700;28;20579;-59
2024/01/09 10:39:33;;;;;;;14.53;8.80;;;4.80;40.70;;;;;;4990551;28;20241;-61
2024/01/09 10:42:07;;;;;;;17.90;9.40;;;4.40;39.20;;;;;;4995086;28;20825;-61
2024/01/09 10:44:33;;;;;;;15.80;9.17;;;4.60;38.80;;;;;;4991542;28;20187;-61
2024/01/09 10:47:00;;;;;;;16.17;8.90;;;4.50;40.20;;;;;;4992521;28;20965;-60
2024/01/09 10:49:27;;;;;;;15.47;9.33;;;4.50;40.50;;;;;;4993588;28;20191;-62
2024/01/09 10:51:55;;;;;;;17.47;8.40;;;4.80;39.70;;;;;;4988868;28;20437;-61
2024/01/09 10:54:21;;;;;;;12.87;8.27;;;5.20;38.60;;;;;;4994120;28;20848;-61
2024/01/09 10:56:49;;;;;;;15.10;8.80;;;5.10;38.30;;;;;;4990559;28;20489;-61
2024/01/09 10:59:16;;;;;;;13.33;8.77;;;5.30;37.90;;;;;;4991607;28;20437;-62
2024/01/09 11:01:41;;;;;;;14.30;10.63;;;5.40;37.80;;;;;;4992006;28;20437;-61
2024/01/09 11:04:08;;;;;;;13.67;8.80;;;5.80;36.80;;;;;;4992941;28;20430;-62
2024/01/09 11:06:36;;;;;;;13.17;8.80;;;6.00;35.70;;;;;;4992636;28;20198;-61
2024/01/09 11:09:04;;;;;;;14.40;9.43;;;6.10;36.30;;;;;;4985812;28;21030;-60
2024/01/09 11:11:33;;;;;;;14.57;9.10;;;6.40;34.80;;;;;;4989946;28;20473;-61
2024/01/09 11:14:03;;;;;;;12.40;9.30;;;6.30;35.40;;;;;;4993750;28;20433;-61
2024/01/09 11:16:32;;;;;;;17.53;10.23;;;6.70;34.70;;;;;;4990447;28;20473;-61
2024/01/09 11:18:58;;;;;;;12.77;8.50;;;7.10;34.10;;;;;;4994835;28;20421;-60
2024/01/09 11:21:27;;;;;;;13.57;9.53;;;7.60;33.30;;;;;;4993862;28;20500;-62
2024/01/09 11:23:55;;;;;;;11.50;8.30;;;7.70;33.20;;;;;;4994054;28;20867;-62
2024/01/09 11:26:22;;;;;;;12.30;8.87;;;8.10;32.70;;;;;;4986369;28;20534;-61
2024/01/09 11:28:47;;;;;;;10.53;8.00;;;7.80;31.20;;;;;;4989639;28;20464;-58
2024/01/09 11:31:20;;;;;;;12.93;8.87;;;6.70;32.60;;;;;;4992953;28;20813;-59
2024/01/09 11:33:49;;;;;;;11.50;7.80;;;6.70;33.20;;;;;;4991292;28;20182;-61
2024/01/09 11:36:24;;;;;;;13.23;8.27;;;6.20;32.60;;;;;;4990814;28;20481;-61
2024/01/09 11:38:53;;;;;;;12.30;8.23;;;5.70;33.70;;;;;;4994646;28;20468;-60
2024/01/09 11:41:22;;;;;;;15.70;8.90;;;4.80;34.40;;;;;;4983696;28;20465;-61
2024/01/09 11:44:05;;;;;;;11.87;8.10;;;4.90;35.30;;;;;;4991346;28;20438;-57
2024/01/09 11:46:35;;;;;;;12.97;7.90;;;5.00;35.90;;;;;;4986524;28;20469;-60
2024/01/09 11:49:02;;;;;;;13.63;8.53;;;5.30;36.00;;;;;;4992879;28;21063;-61
2024/01/09 11:51:31;;;;;;;16.30;7.90;;;5.80;34.90;;;;;;4992891;28;20426;-60
2024/01/09 11:54:00;;;;;;;14.60;8.73;;;6.10;34.50;;;;;;4985546;28;20458;-61
2024/01/09 11:56:27;;;;;;;12.63;8.17;;;6.20;33.70;;;;;;4991547;28;21001;-61
2024/01/09 11:58:53;;;;;;;11.67;8.20;;;6.60;34.60;;;;;;4989200;28;20937;-62
2024/01/09 12:01:20;;;;;;;13.87;7.97;;;6.60;33.30;;;;;;4992166;28;20442;-61
2024/01/09 12:03:53;;;;;;;14.33;8.90;;;6.90;32.80;;;;;;4991718;28;20454;-62
2024/01/09 12:06:19;;;;;;;11.10;8.30;;;6.60;33.30;;;;;;4989328;28;20889;-61
2024/01/09 12:08:45;;;;;;;13.90;8.07;;;7.00;33.40;;;;;;4992542;28;20438;-60
2024/01/09 12:11:11;;;;;;;15.60;8.57;;;7.10;32.40;;;;;;4991847;28;20416;-59
2024/01/09 12:13:37;;;;;;;14.67;9.00;;;7.30;32.40;;;;;;4989812;28;20214;-62
2024/01/09 12:16:21;;;;;;;10.00;7.55;;;7.10;31.90;;;;;;4989857;28;20511;-58
2024/01/09 12:18:52;;;;;;;10.17;7.40;;;7.20;32.00;;;;;;4994107;28;20436;-59
2024/01/09 12:21:18;;;;;;;10.60;7.67;;;7.30;31.50;;;;;;4985591;28;20429;-60
2024/01/09 12:23:45;;;;;;;19.13;7.70;;;7.30;31.30;;;;;;4988930;28;20441;-62
2024/01/09 12:26:13;;;;;;;13.30;8.20;;;7.20;30.90;;;;;;4978016;28;20558;-58
2024/01/09 12:28:39;;;;;;;12.53;7.30;;;7.20;30.80;;;;;;4977589;28;20512;-60
2024/01/09 12:31:07;;;;;;;11.67;7.63;;;7.10;30.70;;;;;;4987718;28;21192;-61
2024/01/09 12:33:33;;;;;;;11.60;7.67;;;6.80;31.50;;;;;;4979472;28;20942;-58
2024/01/09 12:35:59;;;;;;;12.57;8.10;;;6.90;31.00;;;;;;4979442;28;20464;-63
2024/01/09 12:38:25;;;;;;;11.10;7.10;;;7.10;31.30;;;;;;4984207;28;20317;-57
2024/01/09 12:40:58;;;;;;;13.83;8.30;;;6.80;31.70;;;;;;4985760;28;20201;-58
2024/01/09 12:43:24;;;;;;;13.50;8.27;;;7.20;31.20;;;;;;4985824;28;20464;-60